sensor_id;sensor_type;location;lat;lon;timestamp;pressure;altitude;pressure_sealevel;temperature;humidity
71956;BME280;59829;50.562;6.258;2023-02-19T12:42:43;97156.91;;;22.66;50.88
71956;BME280;59829;50.562;6.258;2023-02-19T12:52:53;97157.91;;;22.65;51.49
71956;BME280;59829;50.562;6.258;2023-02-19T13:13:27;97173.06;;;22.69;52.80
71956;BME280;59829;50.562;6.258;2023-02-19T13:23:32;97181.06;;;22.76;53.51
71956;BME280;59829;50.562;6.258;2023-02-19T13:44:03;97183.34;;;22.71;54.95
71956;BME280;59829;50.562;6.258;2023-02-19T13:54:13;97188.59;;;22.79;55.96
71956;BME280;59829;50.562;6.258;2023-02-19T14:27:25;97222.69;;;23.82;45.60
71956;BME280;59829;50.562;6.258;2023-02-19T14:37:26;97232.25;;;23.58;44.57
71956;BME280;59829;50.562;6.258;2023-02-19T14:47:27;97257.47;;;24.29;43.88
71956;BME280;59829;50.562;6.258;2023-02-19T14:57:39;97266.97;;;24.76;44.27
71956;BME280;59829;50.562;6.258;2023-02-19T15:07:41;97265.38;;;25.13;43.56
71956;BME280;59829;50.562;6.258;2023-02-19T15:17:41;97254.84;;;25.21;43.98
71956;BME280;59829;50.562;6.258;2023-02-19T15:27:42;97242.75;;;25.35;43.50
71956;BME280;59829;50.562;6.258;2023-02-19T15:37:43;97225.66;;;25.53;44.16
71956;BME280;59829;50.562;6.258;2023-02-19T15:48:09;97221.91;;;25.48;44.33
71956;BME280;59829;50.562;6.258;2023-02-19T16:20:23;97213.16;;;24.88;46.07
71956;BME280;59829;50.562;6.258;2023-02-19T16:30:31;97226.97;;;24.82;46.50
71956;BME280;59829;50.562;6.258;2023-02-19T16:45:45;97246.44;;;24.65;48.27
71956;BME280;59829;50.562;6.258;2023-02-19T16:55:47;97274.81;;;24.30;48.80
71956;BME280;59829;50.562;6.258;2023-02-19T17:05:48;97282.34;;;24.25;49.03
71956;BME280;59829;50.562;6.258;2023-02-19T17:15:49;97291.09;;;24.10;49.54
71956;BME280;59829;50.562;6.258;2023-02-19T17:25:50;97304.44;;;23.84;50.22
71956;BME280;59829;50.562;6.258;2023-02-19T17:35:50;97324.09;;;23.80;50.48
71956;BME280;59829;50.562;6.258;2023-02-19T17:45:50;97329.31;;;23.80;51.59
71956;BME280;59829;50.562;6.258;2023-02-19T17:55:51;97351.25;;;23.70;52.38
71956;BME280;59829;50.562;6.258;2023-02-19T18:05:51;97355.19;;;23.66;53.28
71956;BME280;59829;50.562;6.258;2023-02-19T18:15:52;97348.97;;;23.59;55.06
71956;BME280;59829;50.562;6.258;2023-02-19T18:25:52;97365.81;;;23.57;56.65
71956;BME280;59829;50.562;6.258;2023-02-19T18:35:53;97371.22;;;23.47;57.17
71956;BME280;59829;50.562;6.258;2023-02-19T18:45:53;97375.78;;;23.37;58.12
71956;BME280;59829;50.562;6.258;2023-02-19T18:55:53;97381.66;;;23.31;57.96
71956;BME280;59829;50.562;6.258;2023-02-19T19:05:54;97373.81;;;23.23;58.18
71956;BME280;59829;50.562;6.258;2023-02-19T19:15:54;97369.41;;;23.15;58.23
71956;BME280;59829;50.562;6.258;2023-02-19T19:25:55;97387.84;;;23.05;57.46
71956;BME280;59829;50.562;6.258;2023-02-19T19:35:55;97391.78;;;23.01;57.44
71956;BME280;59829;50.562;6.258;2023-02-19T19:45:56;97387.53;;;22.92;57.07
71956;BME280;59829;50.562;6.258;2023-02-19T19:55:56;97389.44;;;22.90;56.85
71956;BME280;59829;50.562;6.258;2023-02-19T20:05:57;97404.97;;;22.83;56.40
71956;BME280;59829;50.562;6.258;2023-02-19T20:15:57;97389.09;;;22.77;56.40
71956;BME280;59829;50.562;6.258;2023-02-19T20:25:58;97392.69;;;22.76;56.10
71956;BME280;59829;50.562;6.258;2023-02-19T20:35:59;97410.00;;;22.77;56.00
71956;BME280;59829;50.562;6.258;2023-02-19T20:46:00;97415.88;;;22.79;56.47
71956;BME280;59829;50.562;6.258;2023-02-19T20:56:00;97407.34;;;22.69;57.97
71956;BME280;59829;50.562;6.258;2023-02-19T21:06:00;97402.75;;;22.63;58.03
71956;BME280;59829;50.562;6.258;2023-02-19T21:16:01;97403.75;;;22.62;57.92
71956;BME280;59829;50.562;6.258;2023-02-19T21:26:02;97416.47;;;22.65;56.89
71956;BME280;59829;50.562;6.258;2023-02-19T21:36:03;97436.25;;;22.67;56.50
71956;BME280;59829;50.562;6.258;2023-02-19T21:46:04;97444.88;;;22.68;55.99
71956;BME280;59829;50.562;6.258;2023-02-19T21:56:04;97426.28;;;22.63;56.32
71956;BME280;59829;50.562;6.258;2023-02-19T22:06:05;97424.00;;;22.68;55.61
71956;BME280;59829;50.562;6.258;2023-02-19T22:16:06;97415.50;;;22.58;55.99
71956;BME280;59829;50.562;6.258;2023-02-19T22:26:06;97421.00;;;22.54;55.27
71956;BME280;59829;50.562;6.258;2023-02-19T22:36:24;97413.66;;;22.50;54.91
71956;BME280;59829;50.562;6.258;2023-02-19T22:46:29;97405.00;;;22.49;54.68
71956;BME280;59829;50.562;6.258;2023-02-19T22:56:30;97409.41;;;22.49;54.37
71956;BME280;59829;50.562;6.258;2023-02-19T23:06:32;97415.59;;;22.48;53.91
71956;BME280;59829;50.562;6.258;2023-02-19T23:16:33;97424.88;;;22.42;53.92
71956;BME280;59829;50.562;6.258;2023-02-19T23:26:48;97418.03;;;22.41;53.61
71956;BME280;59829;50.562;6.258;2023-02-19T23:36:49;97399.06;;;22.31;53.54
71956;BME280;59829;50.562;6.258;2023-02-19T23:46:50;97389.25;;;22.25;53.29
71956;BME280;59829;50.562;6.258;2023-02-19T23:56:51;97393.94;;;22.21;53.08
